createdAt,value
2018-07-05T00:02:22.541Z,11.03
2018-07-05T00:05:02.125Z,10.63
2018-07-05T00:07:41.504Z,10.53
2018-07-05T00:10:21.031Z,10.73
2018-07-05T00:13:00.455Z,10.90
2018-07-05T00:15:40.765Z,11.08
2018-07-05T00:18:20.330Z,10.60
2018-07-05T00:20:59.846Z,11.20
2018-07-05T00:23:33.425Z,11.00
2018-07-05T00:26:12.928Z,11.60
2018-07-05T00:28:52.582Z,12.07
2018-07-05T00:31:32.071Z,11.38
2018-07-05T00:34:11.686Z,12.20
2018-07-05T00:36:51.036Z,11.50
2018-07-05T00:39:34.115Z,12.07
2018-07-05T00:42:13.757Z,12.47
2018-07-05T00:44:53.278Z,13.30
2018-07-05T00:47:32.872Z,13.53
2018-07-05T00:50:12.517Z,12.70
2018-07-05T00:52:55.428Z,12.17
2018-07-05T00:55:35.025Z,13.80
2018-07-05T00:58:15.000Z,13.25
2018-07-05T01:00:55.469Z,13.40
2018-07-05T01:03:35.093Z,12.53
2018-07-05T01:06:15.434Z,10.53
2018-07-05T01:08:55.863Z,14.25
2018-07-05T01:11:35.499Z,12.13
2018-07-05T01:14:15.961Z,11.23
2018-07-05T01:16:55.608Z,12.35
2018-07-05T01:19:35.241Z,12.30
2018-07-05T01:22:15.700Z,11.47
2018-07-05T01:24:55.245Z,12.67
2018-07-05T01:27:37.734Z,12.60
2018-07-05T01:30:12.067Z,12.02
2018-07-05T01:32:51.711Z,12.50
2018-07-05T01:35:31.333Z,11.57
2018-07-05T01:38:14.192Z,11.33
2018-07-05T01:40:53.517Z,10.95
2018-07-05T01:43:32.976Z,12.20
2018-07-05T01:46:13.100Z,11.38
2018-07-05T01:48:52.720Z,11.15
2018-07-05T01:51:32.191Z,12.17
2018-07-05T01:54:15.424Z,11.70
2018-07-05T01:56:54.999Z,11.47
2018-07-05T01:59:28.612Z,12.05
2018-07-05T02:02:08.873Z,11.30
2018-07-05T02:04:48.452Z,12.00
2018-07-05T02:07:28.121Z,12.93
2018-07-05T02:10:11.808Z,11.57
2018-07-05T02:12:52.908Z,12.55
2018-07-05T02:15:32.548Z,11.30
2018-07-05T02:18:12.121Z,12.90
2018-07-05T02:20:52.352Z,11.40
2018-07-05T02:23:31.741Z,12.28
2018-07-05T02:26:11.209Z,12.00
2018-07-05T02:28:50.669Z,13.07
2018-07-05T02:31:30.130Z,13.27
2018-07-05T02:34:09.749Z,12.33
2018-07-05T02:36:49.267Z,12.67
2018-07-05T02:39:38.825Z,11.60
2018-07-05T02:42:18.786Z,11.55
2018-07-05T02:44:58.313Z,12.93
2018-07-05T02:47:37.742Z,11.40
2018-07-05T02:50:17.439Z,10.45
2018-07-05T02:52:56.973Z,11.27
2018-07-05T02:55:40.532Z,10.63
2018-07-05T02:58:21.330Z,12.98
2018-07-05T03:01:01.946Z,11.77
2018-07-05T03:03:41.553Z,12.10
2018-07-05T03:06:21.991Z,12.03
2018-07-05T03:09:02.893Z,12.00
2018-07-05T03:11:50.143Z,12.90
2018-07-05T03:14:29.803Z,12.97
2018-07-05T03:17:04.188Z,13.23
2018-07-05T03:19:43.771Z,13.13
2018-07-05T03:22:23.232Z,13.20
2018-07-05T03:25:02.705Z,13.15
2018-07-05T03:27:42.109Z,12.30
2018-07-05T03:30:21.597Z,12.60
2018-07-05T03:33:01.152Z,12.85
2018-07-05T03:35:41.612Z,12.73
2018-07-05T03:38:21.457Z,11.80
2018-07-05T03:41:12.665Z,11.87
2018-07-05T03:43:53.013Z,13.33
2018-07-05T03:46:32.533Z,12.40
2018-07-05T03:49:12.520Z,12.30
2018-07-05T03:51:52.125Z,12.40
2018-07-05T03:54:31.592Z,13.33
2018-07-05T03:57:11.304Z,12.77
2018-07-05T03:59:50.984Z,12.33
2018-07-05T04:02:30.522Z,11.60
2018-07-05T04:05:09.924Z,12.63
2018-07-05T04:07:49.400Z,11.73
2018-07-05T04:10:28.889Z,13.05
2018-07-05T04:13:08.596Z,11.37
2018-07-05T04:15:48.862Z,11.73
2018-07-05T04:18:28.560Z,10.38
2018-07-05T04:21:07.925Z,10.63
2018-07-05T04:23:47.466Z,10.48
2018-07-05T04:26:21.943Z,11.77
2018-07-05T04:29:02.524Z,12.47
2018-07-05T04:31:42.089Z,10.57
2018-07-05T04:34:21.525Z,10.97
2018-07-05T04:37:01.068Z,10.20
2018-07-05T04:39:41.228Z,11.22
2018-07-05T04:42:20.760Z,10.95
2018-07-05T04:45:00.420Z,11.28
2018-07-05T04:47:40.055Z,10.67
2018-07-05T04:50:19.488Z,11.20
2018-07-05T04:52:59.067Z,10.15
2018-07-05T04:55:38.680Z,10.20
2018-07-05T04:58:19.144Z,11.47
2018-07-05T05:00:58.764Z,12.50
2018-07-05T05:03:38.285Z,11.27
2018-07-05T05:06:17.940Z,12.77
2018-07-05T05:08:57.542Z,13.30
2018-07-05T05:11:36.936Z,13.47
2018-07-05T05:14:16.529Z,12.50
2018-07-05T05:16:50.903Z,12.90
2018-07-05T05:19:30.391Z,13.97
2018-07-05T05:22:10.037Z,14.67
2018-07-05T05:24:49.869Z,15.17
2018-07-05T05:27:29.332Z,15.27
2018-07-05T05:30:08.957Z,14.13
2018-07-05T05:32:48.549Z,16.63
2018-07-05T05:35:28.142Z,14.73
2018-07-05T05:38:08.773Z,14.20
2018-07-05T05:40:48.297Z,12.50
2018-07-05T05:43:27.797Z,12.97
2018-07-05T05:46:07.470Z,13.40
2018-07-05T05:48:46.942Z,13.50
2018-07-05T05:51:26.568Z,13.95
2018-07-05T05:54:07.533Z,14.58
2018-07-05T05:56:46.954Z,12.60
2018-07-05T05:59:20.491Z,13.65
2018-07-05T06:02:00.127Z,13.10
2018-07-05T06:04:39.725Z,13.07
2018-07-05T06:07:14.325Z,12.77
2018-07-05T06:09:53.824Z,14.23
2018-07-05T06:12:37.154Z,12.95
2018-07-05T06:15:16.811Z,14.13
2018-07-05T06:17:56.819Z,13.50
2018-07-05T06:20:36.477Z,13.00
2018-07-05T06:23:16.928Z,13.55
2018-07-05T06:25:56.539Z,13.50
2018-07-05T06:28:35.953Z,13.03
2018-07-05T06:31:10.361Z,12.58
2018-07-05T06:33:49.898Z,12.77
2018-07-05T06:36:29.397Z,13.33
2018-07-05T06:39:08.996Z,12.33
2018-07-05T06:41:49.050Z,13.27
2018-07-05T06:44:28.638Z,12.73
2018-07-05T06:47:08.177Z,12.47
2018-07-05T06:49:48.499Z,13.95
2018-07-05T06:52:28.096Z,13.20
2018-07-05T06:55:01.631Z,12.80
2018-07-05T06:57:41.240Z,13.80
2018-07-05T07:00:24.087Z,12.33
2018-07-05T07:03:03.617Z,13.13
2018-07-05T07:05:43.608Z,11.97
2018-07-05T07:08:23.043Z,13.20
2018-07-05T07:11:02.701Z,11.10
2018-07-05T07:13:46.280Z,11.90
2018-07-05T07:16:26.575Z,10.97
2018-07-05T07:19:06.895Z,11.12
2018-07-05T07:21:46.533Z,10.67
2018-07-05T07:24:20.032Z,9.80
2018-07-05T07:26:59.548Z,10.40
2018-07-05T07:29:39.933Z,10.82
2018-07-05T07:32:20.581Z,10.30
2018-07-05T07:35:00.065Z,10.17
2018-07-05T07:37:39.686Z,9.73
2018-07-05T07:40:19.192Z,10.28
2018-07-05T07:42:47.235Z,8.43
2018-07-05T07:45:14.435Z,9.27
2018-07-05T07:47:41.951Z,8.70
2018-07-05T07:50:10.037Z,8.60
2018-07-05T07:52:38.348Z,8.87
2018-07-05T07:55:06.457Z,7.92
2018-07-05T07:57:33.922Z,9.00
2018-07-05T08:00:05.127Z,6.87
2018-07-05T08:02:32.375Z,5.73
2018-07-05T08:04:59.689Z,7.60
2018-07-05T08:07:26.973Z,5.50
2018-07-05T08:09:54.624Z,5.40
2018-07-05T08:12:21.888Z,5.42
2018-07-05T08:14:54.391Z,6.30
2018-07-05T08:17:21.765Z,5.80
2018-07-05T08:19:49.072Z,6.47
2018-07-05T08:22:16.329Z,7.13
2018-07-05T08:24:43.579Z,6.33
2018-07-05T08:27:10.828Z,6.10
2018-07-05T08:29:40.869Z,5.83
2018-07-05T08:32:08.481Z,6.20
2018-07-05T08:34:35.764Z,5.70
2018-07-05T08:37:03.932Z,5.60
2018-07-05T08:39:31.301Z,5.90
2018-07-05T08:41:58.540Z,5.80
2018-07-05T08:44:25.768Z,5.67
2018-07-05T08:46:57.371Z,6.10
2018-07-05T08:49:24.612Z,5.70
2018-07-05T08:51:51.852Z,6.00
2018-07-05T08:54:19.096Z,5.43
2018-07-05T08:56:46.869Z,5.40
2018-07-05T08:59:14.126Z,5.93
2018-07-05T09:01:52.897Z,7.17
2018-07-05T09:04:20.144Z,5.60
2018-07-05T09:06:47.571Z,4.60
2018-07-05T09:09:14.807Z,5.07
2018-07-05T09:11:43.241Z,3.95
2018-07-05T09:14:10.466Z,4.65
2018-07-05T09:16:42.209Z,3.30
2018-07-05T09:19:09.453Z,4.77
2018-07-05T09:21:36.707Z,4.28
2018-07-05T09:24:03.926Z,3.83
2018-07-05T09:26:31.180Z,4.63
2018-07-05T09:28:58.433Z,3.40
2018-07-05T09:31:30.435Z,3.05
2018-07-05T09:33:57.657Z,2.97
2018-07-05T09:36:24.925Z,2.90
2018-07-05T09:38:52.172Z,4.10
2018-07-05T09:41:19.397Z,3.77
2018-07-05T09:43:46.970Z,4.30
2018-07-05T09:46:18.041Z,4.33
2018-07-05T09:48:45.254Z,4.20
2018-07-05T09:51:12.523Z,4.13
2018-07-05T09:53:39.736Z,3.60
2018-07-05T09:56:06.932Z,4.20
2018-07-05T09:58:34.191Z,2.97
2018-07-05T10:01:01.445Z,3.27
2018-07-05T10:03:32.045Z,3.45
2018-07-05T10:05:59.221Z,3.20
2018-07-05T10:08:26.468Z,4.90
2018-07-05T10:10:53.731Z,4.05
2018-07-05T10:13:21.867Z,3.97
2018-07-05T10:15:49.437Z,3.60
2018-07-05T10:18:16.642Z,3.43
2018-07-05T10:20:44.074Z,3.30
2018-07-05T10:23:11.324Z,4.03
2018-07-05T10:25:38.573Z,3.47
2018-07-05T10:28:05.829Z,4.28
2018-07-05T10:30:45.528Z,3.70
2018-07-05T10:33:25.131Z,3.97
2018-07-05T10:35:53.280Z,3.60
2018-07-05T10:38:21.668Z,3.42
2018-07-05T10:40:55.155Z,3.67
2018-07-05T10:43:34.697Z,3.55
2018-07-05T10:46:14.256Z,4.40
2018-07-05T10:48:57.028Z,4.03
2018-07-05T10:51:36.702Z,4.20
2018-07-05T10:54:11.110Z,4.13
2018-07-05T10:56:50.664Z,3.40
2018-07-05T10:59:30.208Z,4.27
2018-07-05T11:02:14.054Z,4.40
2018-07-05T11:04:54.367Z,3.60
2018-07-05T11:07:34.224Z,3.93
2018-07-05T11:10:13.617Z,4.37
2018-07-05T11:12:53.329Z,3.30
2018-07-05T11:15:32.860Z,3.00
2018-07-05T11:18:16.201Z,3.37
2018-07-05T11:20:49.902Z,3.90
2018-07-05T11:23:29.445Z,2.50
2018-07-05T11:26:09.094Z,2.80
2018-07-05T11:28:48.625Z,2.70
2018-07-05T11:31:28.137Z,2.43
2018-07-05T11:34:07.637Z,3.20
2018-07-05T11:36:47.297Z,2.60
2018-07-05T11:39:27.715Z,1.70
2018-07-05T11:42:07.323Z,2.60
2018-07-05T11:44:46.861Z,2.90
2018-07-05T11:47:26.348Z,2.00
2018-07-05T11:50:09.124Z,2.20
2018-07-05T11:52:48.814Z,2.50
2018-07-05T11:55:29.211Z,2.45
2018-07-05T11:58:08.837Z,2.27
2018-07-05T12:00:48.518Z,2.40
2018-07-05T12:03:30.968Z,2.03
2018-07-05T12:06:13.513Z,3.10
2018-07-05T12:08:53.347Z,3.20
2018-07-05T12:11:32.900Z,2.67
2018-07-05T12:14:12.983Z,3.33
2018-07-05T12:16:52.594Z,3.50
2018-07-05T12:19:29.980Z,4.00
2018-07-05T12:22:09.598Z,3.93
2018-07-05T12:24:49.770Z,3.72
2018-07-05T12:27:29.443Z,3.97
2018-07-05T12:30:02.996Z,3.77
2018-07-05T12:32:42.615Z,3.43
2018-07-05T12:35:22.177Z,3.33
2018-07-05T12:38:01.716Z,4.15
2018-07-05T12:40:41.416Z,2.92
2018-07-05T12:43:21.911Z,3.80
2018-07-05T12:46:01.544Z,3.70
2018-07-05T12:48:41.141Z,3.60
2018-07-05T12:51:20.581Z,4.60
2018-07-05T12:54:00.009Z,3.87
2018-07-05T12:56:40.808Z,4.03
2018-07-05T12:59:14.663Z,5.20
2018-07-05T13:01:54.875Z,4.13
2018-07-05T13:04:38.100Z,4.50
2018-07-05T13:07:17.654Z,4.10
2018-07-05T13:09:51.207Z,3.62
2018-07-05T13:12:30.973Z,4.80
2018-07-05T13:15:10.673Z,4.13
2018-07-05T13:17:50.319Z,4.50
2018-07-05T13:20:33.496Z,4.60
2018-07-05T13:23:13.449Z,3.35
2018-07-05T13:25:53.100Z,3.83
2018-07-05T13:28:26.686Z,3.70
2018-07-05T13:31:06.350Z,4.50
2018-07-05T13:33:45.777Z,3.20
2018-07-05T13:36:25.381Z,3.80
2018-07-05T13:39:05.342Z,4.15
2018-07-05T13:41:45.127Z,5.15
2018-07-05T13:44:24.761Z,3.80
2018-07-05T13:47:04.434Z,5.57
2018-07-05T13:49:43.887Z,7.43
2018-07-05T13:52:23.512Z,3.80
2018-07-05T13:54:58.091Z,3.60
2018-07-05T13:57:38.079Z,2.83
2018-07-05T14:00:17.521Z,4.10
2018-07-05T14:02:57.873Z,2.30
2018-07-05T14:05:40.794Z,3.00
2018-07-05T14:08:20.332Z,3.10
2018-07-05T14:10:59.819Z,2.80
2018-07-05T14:13:39.402Z,3.00
2018-07-05T14:16:19.057Z,3.13
2018-07-05T14:18:52.621Z,3.80
2018-07-05T14:21:35.374Z,2.40
2018-07-05T14:24:14.810Z,2.73
2018-07-05T14:26:55.373Z,3.90
2018-07-05T14:29:34.828Z,2.97
2018-07-05T14:32:14.436Z,3.47
2018-07-05T14:34:54.076Z,2.73
2018-07-05T14:37:33.659Z,2.67
2018-07-05T14:40:07.350Z,3.30
2018-07-05T14:42:47.043Z,2.40
2018-07-05T14:45:27.210Z,2.83
2018-07-05T14:48:07.092Z,2.85
2018-07-05T14:50:46.801Z,3.60
2018-07-05T14:53:26.285Z,3.20
2018-07-05T14:56:05.825Z,3.10
2018-07-05T14:58:45.386Z,2.90
2018-07-05T15:01:24.804Z,4.60
2018-07-05T15:04:05.408Z,4.30
2018-07-05T15:06:44.813Z,4.13
2018-07-05T15:09:24.385Z,4.77
2018-07-05T15:12:04.046Z,3.50
2018-07-05T15:14:43.452Z,4.20
2018-07-05T15:17:17.856Z,4.20
2018-07-05T15:19:57.351Z,4.08
2018-07-05T15:22:40.197Z,4.20
2018-07-05T15:25:19.840Z,4.20
2018-07-05T15:27:59.533Z,4.43
2018-07-05T15:30:39.025Z,6.23
2018-07-05T15:33:18.555Z,5.55
2018-07-05T15:35:58.385Z,5.97
2018-07-05T15:38:38.363Z,6.28
2018-07-05T15:41:17.968Z,7.60
2018-07-05T15:43:57.650Z,6.43
2018-07-05T15:46:37.259Z,7.28
2018-07-05T15:49:16.880Z,6.20
2018-07-05T15:51:57.195Z,6.50
2018-07-05T15:54:36.840Z,7.05
2018-07-05T15:57:16.532Z,12.30
2018-07-05T15:59:50.140Z,9.00
2018-07-05T16:02:23.590Z,12.17
2018-07-05T16:05:03.016Z,11.93
2018-07-05T16:07:46.697Z,9.30
2018-07-05T16:10:26.298Z,6.35
2018-07-05T16:13:05.813Z,8.73
2018-07-05T16:15:45.342Z,6.70
2018-07-05T16:18:24.984Z,7.65
2018-07-05T16:20:58.519Z,7.20
2018-07-05T16:23:38.325Z,8.23
2018-07-05T16:26:12.756Z,5.57
2018-07-05T16:28:52.228Z,5.72
2018-07-05T16:31:31.764Z,6.30
2018-07-05T16:34:11.469Z,8.88
2018-07-05T16:36:51.169Z,4.90
2018-07-05T16:39:34.192Z,6.03
2018-07-05T16:42:15.057Z,7.73
2018-07-05T16:44:54.640Z,6.80
2018-07-05T16:47:34.276Z,6.70
2018-07-05T16:50:13.859Z,6.43
2018-07-05T16:52:57.024Z,7.90
2018-07-05T16:55:36.672Z,9.80
2018-07-05T16:58:16.280Z,8.30
2018-07-05T17:00:55.719Z,6.57
2018-07-05T17:03:35.423Z,7.12
2018-07-05T17:06:15.187Z,8.10
2018-07-05T17:08:54.770Z,7.67
2018-07-05T17:11:35.591Z,8.30
2018-07-05T17:14:15.233Z,7.57
2018-07-05T17:16:54.985Z,8.13
2018-07-05T17:19:34.659Z,9.80
2018-07-05T17:22:14.439Z,9.60
2018-07-05T17:24:54.933Z,9.53
2018-07-05T17:27:34.693Z,8.13
2018-07-05T17:30:14.425Z,8.10
2018-07-05T17:32:54.245Z,8.70
2018-07-05T17:35:33.899Z,7.70
2018-07-05T17:38:13.598Z,8.88
2018-07-05T17:40:56.716Z,9.08
2018-07-05T17:43:36.265Z,7.65
2018-07-05T17:46:15.848Z,8.47
2018-07-05T17:48:55.475Z,9.67
2018-07-05T17:51:35.265Z,11.50
2018-07-05T17:54:15.746Z,12.80
2018-07-05T17:56:58.565Z,13.83
2018-07-05T17:59:38.357Z,11.40
2018-07-05T18:02:18.125Z,9.57
2018-07-05T18:04:59.716Z,11.02
2018-07-05T18:07:39.316Z,10.30
2018-07-05T18:10:29.640Z,12.37
2018-07-05T18:13:09.191Z,11.93
2018-07-05T18:15:48.935Z,10.50
2018-07-05T18:18:28.534Z,8.77
2018-07-05T18:21:08.301Z,8.93
2018-07-05T18:23:48.727Z,7.58
2018-07-05T18:26:28.396Z,8.90
2018-07-05T18:29:08.096Z,7.35
2018-07-05T18:31:47.758Z,7.80
2018-07-05T18:34:27.325Z,8.13
2018-07-05T18:37:07.443Z,8.40
2018-07-05T18:39:50.496Z,7.47
2018-07-05T18:42:30.204Z,8.03
2018-07-05T18:45:10.141Z,9.33
2018-07-05T18:47:50.211Z,9.38
2018-07-05T18:50:30.013Z,8.73
2018-07-05T18:53:09.792Z,15.13
2018-07-05T18:55:49.315Z,11.00
2018-07-05T18:58:29.237Z,9.95
2018-07-05T19:01:09.705Z,10.20
2018-07-05T19:03:49.387Z,8.93
2018-07-05T19:06:29.044Z,10.82
2018-07-05T19:09:08.629Z,9.85
2018-07-05T19:11:48.324Z,9.13
2018-07-05T19:14:28.116Z,16.40
2018-07-05T19:17:07.821Z,9.80
2018-07-05T19:19:47.460Z,9.17
2018-07-05T19:22:27.070Z,9.18
2018-07-05T19:25:06.527Z,10.32
2018-07-05T19:27:46.497Z,9.28
2018-07-05T19:30:26.189Z,10.20
2018-07-05T19:33:07.380Z,10.45
2018-07-05T19:35:47.054Z,9.80
2018-07-05T19:38:26.600Z,10.27
2018-07-05T19:41:12.424Z,10.60
2018-07-05T19:43:52.071Z,9.95
2018-07-05T19:46:32.139Z,9.00
2018-07-05T19:49:11.725Z,11.03
2018-07-05T19:51:51.409Z,11.35
2018-07-05T19:54:31.012Z,11.83
2018-07-05T19:57:10.512Z,11.63
2018-07-05T19:59:50.053Z,13.37
2018-07-05T20:02:23.789Z,12.97
2018-07-05T20:05:04.003Z,12.28
2018-07-05T20:07:43.789Z,12.60
2018-07-05T20:10:23.609Z,13.60
2018-07-05T20:12:58.182Z,13.40
2018-07-05T20:15:37.768Z,13.32
2018-07-05T20:18:17.467Z,14.50
2018-07-05T20:20:57.140Z,13.33
2018-07-05T20:23:36.799Z,12.70
2018-07-05T20:26:16.584Z,13.27
2018-07-05T20:28:56.020Z,13.62
2018-07-05T20:31:36.121Z,13.72
2018-07-05T20:34:15.709Z,13.23
2018-07-05T20:36:49.876Z,13.57
2018-07-05T20:39:29.459Z,13.07
2018-07-05T20:42:13.068Z,13.87
2018-07-05T20:44:52.590Z,13.70
2018-07-05T20:47:32.150Z,15.00
2018-07-05T20:50:11.839Z,15.30
2018-07-05T20:52:51.272Z,15.57
2018-07-05T20:55:31.184Z,15.20
2018-07-05T20:58:10.773Z,15.03
2018-07-05T21:00:51.120Z,15.48
2018-07-05T21:03:30.671Z,13.60
2018-07-05T21:06:10.407Z,15.40
2018-07-05T21:08:49.941Z,15.63
2018-07-05T21:11:29.574Z,16.10
2018-07-05T21:14:09.236Z,16.30
2018-07-05T21:16:48.789Z,16.73
2018-07-05T21:19:28.928Z,17.75
2018-07-05T21:22:02.628Z,17.33
2018-07-05T21:24:42.236Z,15.20
2018-07-05T21:27:21.770Z,17.47
2018-07-05T21:30:01.297Z,18.30
2018-07-05T21:32:41.760Z,17.07
2018-07-05T21:35:21.258Z,15.83
2018-07-05T21:37:55.012Z,16.97
2018-07-05T21:40:34.573Z,17.27
2018-07-05T21:43:14.213Z,16.33
2018-07-05T21:45:53.697Z,15.70
2018-07-05T21:48:34.148Z,14.53
2018-07-05T21:51:13.786Z,17.00
2018-07-05T21:53:53.395Z,16.37
2018-07-05T21:56:33.161Z,16.57
2018-07-05T21:59:06.683Z,16.70
2018-07-05T22:01:46.177Z,16.50
2018-07-05T22:04:25.720Z,15.50
2018-07-05T22:07:05.189Z,14.27
2018-07-05T22:09:45.568Z,14.07
2018-07-05T22:12:25.197Z,13.77
2018-07-05T22:15:04.836Z,12.18
2018-07-05T22:17:49.980Z,12.10
2018-07-05T22:20:36.070Z,16.50
2018-07-05T22:23:22.148Z,15.72
2018-07-05T22:26:07.085Z,15.80
2018-07-05T22:28:59.994Z,14.20
2018-07-05T22:31:39.375Z,15.33
2018-07-05T22:34:18.892Z,13.73
2018-07-05T22:36:58.500Z,15.55
2018-07-05T22:39:38.078Z,12.55
2018-07-05T22:42:18.031Z,12.73
2018-07-05T22:44:57.580Z,11.83
2018-07-05T22:47:37.209Z,14.58
2018-07-05T22:50:16.749Z,12.43
2018-07-05T22:52:56.298Z,12.97
2018-07-05T22:55:35.933Z,13.13
2018-07-05T22:58:15.368Z,12.77
2018-07-05T23:00:55.012Z,14.35
2018-07-05T23:03:34.468Z,13.13
2018-07-05T23:06:14.445Z,13.18
2018-07-05T23:08:54.044Z,13.87
2018-07-05T23:11:33.789Z,14.10
2018-07-05T23:14:16.377Z,14.50
2018-07-05T23:16:55.945Z,14.30
2018-07-05T23:19:35.838Z,15.17
2018-07-05T23:22:15.954Z,15.10
2018-07-05T23:24:55.489Z,14.45
2018-07-05T23:27:35.132Z,15.30
2018-07-05T23:30:25.285Z,15.17
2018-07-05T23:33:04.932Z,14.47
2018-07-05T23:35:44.341Z,14.87
2018-07-05T23:38:23.839Z,15.17
2018-07-05T23:41:03.389Z,15.40
2018-07-05T23:43:43.065Z,14.93
2018-07-05T23:46:26.257Z,14.77
2018-07-05T23:49:05.805Z,15.93
2018-07-05T23:51:45.438Z,15.87
2018-07-05T23:54:25.140Z,14.03
2018-07-05T23:57:04.716Z,13.50
2018-07-05T23:59:44.153Z,12.63
